sensor_id;sensor_type;location;lat;lon;timestamp;P1;durP1;ratioP1;P2;durP2;ratioP2
32186;SDS011;18686;53.084;8.872;2023-09-30T00:02:35;16.55;;;5.30;;
32186;SDS011;18686;53.084;8.872;2023-09-30T00:05:04;13.52;;;4.63;;
32186;SDS011;18686;53.084;8.872;2023-09-30T00:07:33;16.00;;;4.95;;
32186;SDS011;18686;53.084;8.872;2023-09-30T00:10:01;21.67;;;5.18;;
32186;SDS011;18686;53.084;8.872;2023-09-30T00:12:31;23.88;;;4.97;;
32186;SDS011;18686;53.084;8.872;2023-09-30T00:15:00;12.18;;;4.32;;
32186;SDS011;18686;53.084;8.872;2023-09-30T00:17:28;14.55;;;4.63;;
32186;SDS011;18686;53.084;8.872;2023-09-30T00:19:57;17.38;;;4.85;;
32186;SDS011;18686;53.084;8.872;2023-09-30T00:22:25;26.35;;;5.15;;
32186;SDS011;18686;53.084;8.872;2023-09-30T00:24:53;18.50;;;5.30;;
32186;SDS011;18686;53.084;8.872;2023-09-30T00:27:22;21.38;;;5.15;;
32186;SDS011;18686;53.084;8.872;2023-09-30T00:29:51;16.55;;;5.10;;
32186;SDS011;18686;53.084;8.872;2023-09-30T00:32:20;26.67;;;5.28;;
32186;SDS011;18686;53.084;8.872;2023-09-30T00:34:48;19.45;;;5.70;;
32186;SDS011;18686;53.084;8.872;2023-09-30T00:37:18;18.63;;;5.53;;
32186;SDS011;18686;53.084;8.872;2023-09-30T00:39:46;19.27;;;4.57;;
32186;SDS011;18686;53.084;8.872;2023-09-30T00:42:15;16.00;;;5.22;;
32186;SDS011;18686;53.084;8.872;2023-09-30T00:44:43;22.23;;;5.13;;
32186;SDS011;18686;53.084;8.872;2023-09-30T00:47:13;20.98;;;6.28;;
32186;SDS011;18686;53.084;8.872;2023-09-30T00:49:42;21.98;;;5.65;;
32186;SDS011;18686;53.084;8.872;2023-09-30T00:52:11;17.27;;;5.05;;
32186;SDS011;18686;53.084;8.872;2023-09-30T00:54:40;25.63;;;6.13;;
32186;SDS011;18686;53.084;8.872;2023-09-30T00:57:10;19.60;;;4.70;;
32186;SDS011;18686;53.084;8.872;2023-09-30T00:59:39;18.13;;;5.28;;
32186;SDS011;18686;53.084;8.872;2023-09-30T01:02:08;15.65;;;5.90;;
32186;SDS011;18686;53.084;8.872;2023-09-30T01:04:38;15.60;;;4.10;;
32186;SDS011;18686;53.084;8.872;2023-09-30T01:07:07;26.38;;;5.80;;
32186;SDS011;18686;53.084;8.872;2023-09-30T01:09:36;20.73;;;5.53;;
32186;SDS011;18686;53.084;8.872;2023-09-30T01:12:05;22.38;;;5.43;;
32186;SDS011;18686;53.084;8.872;2023-09-30T01:14:35;18.20;;;5.07;;
32186;SDS011;18686;53.084;8.872;2023-09-30T01:17:05;22.13;;;4.93;;
32186;SDS011;18686;53.084;8.872;2023-09-30T01:19:35;22.73;;;6.32;;
32186;SDS011;18686;53.084;8.872;2023-09-30T01:22:06;21.13;;;5.40;;
32186;SDS011;18686;53.084;8.872;2023-09-30T01:24:39;17.92;;;5.03;;
32186;SDS011;18686;53.084;8.872;2023-09-30T01:27:08;25.45;;;5.90;;
32186;SDS011;18686;53.084;8.872;2023-09-30T01:29:37;21.10;;;5.10;;
32186;SDS011;18686;53.084;8.872;2023-09-30T01:32:05;16.73;;;5.85;;
32186;SDS011;18686;53.084;8.872;2023-09-30T01:34:35;22.02;;;5.22;;
32186;SDS011;18686;53.084;8.872;2023-09-30T01:37:03;18.67;;;5.55;;
32186;SDS011;18686;53.084;8.872;2023-09-30T01:39:33;25.25;;;6.50;;
32186;SDS011;18686;53.084;8.872;2023-09-30T01:42:01;19.98;;;5.10;;
32186;SDS011;18686;53.084;8.872;2023-09-30T01:44:32;20.25;;;6.05;;
32186;SDS011;18686;53.084;8.872;2023-09-30T01:47:00;17.92;;;4.68;;
32186;SDS011;18686;53.084;8.872;2023-09-30T01:49:28;20.83;;;5.78;;
32186;SDS011;18686;53.084;8.872;2023-09-30T01:51:57;19.70;;;5.03;;
32186;SDS011;18686;53.084;8.872;2023-09-30T01:54:25;19.70;;;5.43;;
32186;SDS011;18686;53.084;8.872;2023-09-30T01:56:55;18.85;;;5.22;;
32186;SDS011;18686;53.084;8.872;2023-09-30T01:59:25;17.92;;;5.40;;
32186;SDS011;18686;53.084;8.872;2023-09-30T02:01:54;24.90;;;7.03;;
32186;SDS011;18686;53.084;8.872;2023-09-30T02:04:22;25.25;;;6.25;;
32186;SDS011;18686;53.084;8.872;2023-09-30T02:06:50;25.13;;;6.05;;
32186;SDS011;18686;53.084;8.872;2023-09-30T02:09:19;16.33;;;5.50;;
32186;SDS011;18686;53.084;8.872;2023-09-30T02:11:47;21.95;;;5.95;;
32186;SDS011;18686;53.084;8.872;2023-09-30T02:14:17;28.55;;;5.95;;
32186;SDS011;18686;53.084;8.872;2023-09-30T02:16:45;26.10;;;6.07;;
32186;SDS011;18686;53.084;8.872;2023-09-30T02:19:13;21.20;;;5.95;;
32186;SDS011;18686;53.084;8.872;2023-09-30T02:21:41;14.73;;;5.30;;
32186;SDS011;18686;53.084;8.872;2023-09-30T02:24:11;20.85;;;6.78;;
32186;SDS011;18686;53.084;8.872;2023-09-30T02:26:40;25.85;;;9.35;;
32186;SDS011;18686;53.084;8.872;2023-09-30T02:29:08;18.17;;;6.55;;
32186;SDS011;18686;53.084;8.872;2023-09-30T02:31:37;18.80;;;6.90;;
32186;SDS011;18686;53.084;8.872;2023-09-30T02:34:06;18.17;;;7.22;;
32186;SDS011;18686;53.084;8.872;2023-09-30T02:36:34;19.83;;;6.50;;
32186;SDS011;18686;53.084;8.872;2023-09-30T02:39:04;20.50;;;6.18;;
32186;SDS011;18686;53.084;8.872;2023-09-30T02:41:35;19.80;;;6.05;;
32186;SDS011;18686;53.084;8.872;2023-09-30T02:44:04;25.70;;;6.07;;
32186;SDS011;18686;53.084;8.872;2023-09-30T02:46:33;26.80;;;6.60;;
32186;SDS011;18686;53.084;8.872;2023-09-30T02:49:03;19.70;;;6.50;;
32186;SDS011;18686;53.084;8.872;2023-09-30T02:51:31;20.48;;;6.50;;
32186;SDS011;18686;53.084;8.872;2023-09-30T02:53:59;21.70;;;6.10;;
32186;SDS011;18686;53.084;8.872;2023-09-30T02:56:27;20.58;;;6.30;;
32186;SDS011;18686;53.084;8.872;2023-09-30T02:58:57;19.13;;;6.45;;
32186;SDS011;18686;53.084;8.872;2023-09-30T03:01:26;22.00;;;6.07;;
32186;SDS011;18686;53.084;8.872;2023-09-30T03:03:54;24.70;;;6.43;;
32186;SDS011;18686;53.084;8.872;2023-09-30T03:06:24;22.20;;;6.57;;
32186;SDS011;18686;53.084;8.872;2023-09-30T03:08:53;24.80;;;6.68;;
32186;SDS011;18686;53.084;8.872;2023-09-30T03:11:21;24.15;;;7.32;;
32186;SDS011;18686;53.084;8.872;2023-09-30T03:13:50;17.77;;;5.53;;
32186;SDS011;18686;53.084;8.872;2023-09-30T03:16:18;19.27;;;6.40;;
32186;SDS011;18686;53.084;8.872;2023-09-30T03:18:47;22.65;;;5.70;;
32186;SDS011;18686;53.084;8.872;2023-09-30T03:21:17;25.25;;;5.93;;
32186;SDS011;18686;53.084;8.872;2023-09-30T03:23:47;21.23;;;6.88;;
32186;SDS011;18686;53.084;8.872;2023-09-30T03:26:15;19.67;;;6.68;;
32186;SDS011;18686;53.084;8.872;2023-09-30T03:28:44;17.15;;;6.45;;
32186;SDS011;18686;53.084;8.872;2023-09-30T03:31:12;24.10;;;7.90;;
32186;SDS011;18686;53.084;8.872;2023-09-30T03:33:40;22.90;;;8.13;;
32186;SDS011;18686;53.084;8.872;2023-09-30T03:36:09;24.40;;;7.45;;
32186;SDS011;18686;53.084;8.872;2023-09-30T03:38:37;22.95;;;6.63;;
32186;SDS011;18686;53.084;8.872;2023-09-30T03:41:09;24.08;;;6.30;;
32186;SDS011;18686;53.084;8.872;2023-09-30T03:43:39;21.33;;;5.68;;
32186;SDS011;18686;53.084;8.872;2023-09-30T03:46:08;21.35;;;6.45;;
32186;SDS011;18686;53.084;8.872;2023-09-30T03:48:36;20.23;;;5.88;;
32186;SDS011;18686;53.084;8.872;2023-09-30T03:51:09;19.10;;;5.55;;
32186;SDS011;18686;53.084;8.872;2023-09-30T03:53:40;17.50;;;5.65;;
32186;SDS011;18686;53.084;8.872;2023-09-30T03:56:10;20.98;;;5.88;;
32186;SDS011;18686;53.084;8.872;2023-09-30T03:58:39;20.33;;;5.95;;
32186;SDS011;18686;53.084;8.872;2023-09-30T04:01:08;21.27;;;6.40;;
32186;SDS011;18686;53.084;8.872;2023-09-30T04:03:38;24.17;;;6.72;;
32186;SDS011;18686;53.084;8.872;2023-09-30T04:06:07;24.48;;;6.45;;
32186;SDS011;18686;53.084;8.872;2023-09-30T04:08:35;21.85;;;5.82;;
32186;SDS011;18686;53.084;8.872;2023-09-30T04:11:04;28.23;;;6.68;;
32186;SDS011;18686;53.084;8.872;2023-09-30T04:13:34;23.08;;;7.47;;
32186;SDS011;18686;53.084;8.872;2023-09-30T04:16:03;28.00;;;9.00;;
32186;SDS011;18686;53.084;8.872;2023-09-30T04:18:31;20.38;;;6.80;;
32186;SDS011;18686;53.084;8.872;2023-09-30T04:20:59;21.55;;;6.82;;
32186;SDS011;18686;53.084;8.872;2023-09-30T04:23:28;23.30;;;7.18;;
32186;SDS011;18686;53.084;8.872;2023-09-30T04:25:56;22.55;;;7.30;;
32186;SDS011;18686;53.084;8.872;2023-09-30T04:28:24;23.35;;;6.80;;
32186;SDS011;18686;53.084;8.872;2023-09-30T04:30:54;20.20;;;6.65;;
32186;SDS011;18686;53.084;8.872;2023-09-30T04:33:24;20.27;;;6.28;;
32186;SDS011;18686;53.084;8.872;2023-09-30T04:35:53;27.92;;;7.20;;
32186;SDS011;18686;53.084;8.872;2023-09-30T04:38:21;28.02;;;6.63;;
32186;SDS011;18686;53.084;8.872;2023-09-30T04:40:49;25.13;;;7.25;;
32186;SDS011;18686;53.084;8.872;2023-09-30T04:43:18;17.75;;;5.95;;
32186;SDS011;18686;53.084;8.872;2023-09-30T04:45:47;21.48;;;6.57;;
32186;SDS011;18686;53.084;8.872;2023-09-30T04:48:20;18.65;;;6.30;;
32186;SDS011;18686;53.084;8.872;2023-09-30T04:50:49;19.17;;;6.38;;
32186;SDS011;18686;53.084;8.872;2023-09-30T04:53:17;21.23;;;6.05;;
32186;SDS011;18686;53.084;8.872;2023-09-30T04:55:46;14.13;;;5.32;;
32186;SDS011;18686;53.084;8.872;2023-09-30T04:58:16;18.75;;;5.25;;
32186;SDS011;18686;53.084;8.872;2023-09-30T05:00:44;20.70;;;5.60;;
32186;SDS011;18686;53.084;8.872;2023-09-30T05:03:12;16.15;;;5.72;;
32186;SDS011;18686;53.084;8.872;2023-09-30T05:05:42;23.92;;;6.05;;
32186;SDS011;18686;53.084;8.872;2023-09-30T05:08:10;13.70;;;5.65;;
32186;SDS011;18686;53.084;8.872;2023-09-30T05:10:40;15.63;;;5.82;;
32186;SDS011;18686;53.084;8.872;2023-09-30T05:13:08;22.35;;;6.50;;
32186;SDS011;18686;53.084;8.872;2023-09-30T05:15:37;24.15;;;6.40;;
32186;SDS011;18686;53.084;8.872;2023-09-30T05:18:05;17.48;;;6.10;;
32186;SDS011;18686;53.084;8.872;2023-09-30T05:20:35;15.38;;;5.82;;
32186;SDS011;18686;53.084;8.872;2023-09-30T05:23:06;19.20;;;6.32;;
32186;SDS011;18686;53.084;8.872;2023-09-30T05:25:34;24.60;;;6.80;;
32186;SDS011;18686;53.084;8.872;2023-09-30T05:28:03;22.48;;;6.70;;
32186;SDS011;18686;53.084;8.872;2023-09-30T05:30:32;18.92;;;6.47;;
32186;SDS011;18686;53.084;8.872;2023-09-30T05:33:00;23.15;;;6.70;;
32186;SDS011;18686;53.084;8.872;2023-09-30T05:35:29;18.15;;;6.13;;
32186;SDS011;18686;53.084;8.872;2023-09-30T05:37:58;18.58;;;6.10;;
32186;SDS011;18686;53.084;8.872;2023-09-30T05:40:28;23.52;;;5.90;;
32186;SDS011;18686;53.084;8.872;2023-09-30T05:42:57;11.25;;;4.80;;
32186;SDS011;18686;53.084;8.872;2023-09-30T05:45:26;15.77;;;5.40;;
32186;SDS011;18686;53.084;8.872;2023-09-30T05:47:55;14.75;;;4.80;;
32186;SDS011;18686;53.084;8.872;2023-09-30T05:50:29;14.18;;;4.28;;
32186;SDS011;18686;53.084;8.872;2023-09-30T05:52:58;18.00;;;6.05;;
32186;SDS011;18686;53.084;8.872;2023-09-30T05:55:28;18.13;;;5.45;;
32186;SDS011;18686;53.084;8.872;2023-09-30T05:57:56;18.13;;;5.35;;
32186;SDS011;18686;53.084;8.872;2023-09-30T06:00:25;23.02;;;5.50;;
32186;SDS011;18686;53.084;8.872;2023-09-30T06:02:58;26.85;;;6.35;;
32186;SDS011;18686;53.084;8.872;2023-09-30T06:05:27;15.32;;;5.10;;
32186;SDS011;18686;53.084;8.872;2023-09-30T06:07:58;21.17;;;5.90;;
32186;SDS011;18686;53.084;8.872;2023-09-30T06:10:30;22.05;;;6.72;;
32186;SDS011;18686;53.084;8.872;2023-09-30T06:12:59;20.70;;;5.57;;
32186;SDS011;18686;53.084;8.872;2023-09-30T06:15:28;12.65;;;4.90;;
32186;SDS011;18686;53.084;8.872;2023-09-30T06:17:58;22.42;;;5.15;;
32186;SDS011;18686;53.084;8.872;2023-09-30T06:20:27;27.00;;;5.57;;
32186;SDS011;18686;53.084;8.872;2023-09-30T06:22:57;19.27;;;5.85;;
32186;SDS011;18686;53.084;8.872;2023-09-30T06:25:27;20.77;;;6.20;;
32186;SDS011;18686;53.084;8.872;2023-09-30T06:27:58;14.10;;;5.38;;
32186;SDS011;18686;53.084;8.872;2023-09-30T06:30:26;11.98;;;5.38;;
32186;SDS011;18686;53.084;8.872;2023-09-30T06:32:58;14.35;;;4.65;;
32186;SDS011;18686;53.084;8.872;2023-09-30T06:35:28;13.15;;;4.90;;
32186;SDS011;18686;53.084;8.872;2023-09-30T06:38:00;12.80;;;4.35;;
32186;SDS011;18686;53.084;8.872;2023-09-30T06:40:29;20.35;;;5.13;;
32186;SDS011;18686;53.084;8.872;2023-09-30T06:42:59;16.30;;;5.35;;
32186;SDS011;18686;53.084;8.872;2023-09-30T06:45:27;17.92;;;5.40;;
32186;SDS011;18686;53.084;8.872;2023-09-30T06:47:56;11.98;;;4.32;;
32186;SDS011;18686;53.084;8.872;2023-09-30T06:50:24;17.20;;;5.80;;
32186;SDS011;18686;53.084;8.872;2023-09-30T06:52:52;20.70;;;6.07;;
32186;SDS011;18686;53.084;8.872;2023-09-30T06:55:21;12.95;;;4.28;;
32186;SDS011;18686;53.084;8.872;2023-09-30T06:57:49;15.95;;;5.75;;
32186;SDS011;18686;53.084;8.872;2023-09-30T07:00:19;14.98;;;4.68;;
32186;SDS011;18686;53.084;8.872;2023-09-30T07:02:47;11.32;;;4.35;;
32186;SDS011;18686;53.084;8.872;2023-09-30T07:05:15;13.20;;;4.65;;
32186;SDS011;18686;53.084;8.872;2023-09-30T07:07:44;13.52;;;4.40;;
32186;SDS011;18686;53.084;8.872;2023-09-30T07:10:12;12.32;;;4.45;;
32186;SDS011;18686;53.084;8.872;2023-09-30T07:12:40;12.95;;;4.57;;
32186;SDS011;18686;53.084;8.872;2023-09-30T07:15:10;15.30;;;4.47;;
32186;SDS011;18686;53.084;8.872;2023-09-30T07:17:40;13.27;;;4.20;;
32186;SDS011;18686;53.084;8.872;2023-09-30T07:20:11;8.02;;;3.40;;
32186;SDS011;18686;53.084;8.872;2023-09-30T07:22:39;13.07;;;3.95;;
32186;SDS011;18686;53.084;8.872;2023-09-30T07:25:28;14.63;;;4.50;;
32186;SDS011;18686;53.084;8.872;2023-09-30T07:27:58;12.70;;;4.47;;
32186;SDS011;18686;53.084;8.872;2023-09-30T07:30:27;14.20;;;4.10;;
32186;SDS011;18686;53.084;8.872;2023-09-30T07:32:57;11.02;;;3.75;;
32186;SDS011;18686;53.084;8.872;2023-09-30T07:35:25;11.98;;;4.00;;
32186;SDS011;18686;53.084;8.872;2023-09-30T07:37:53;9.27;;;3.20;;
32186;SDS011;18686;53.084;8.872;2023-09-30T07:40:21;13.80;;;3.83;;
32186;SDS011;18686;53.084;8.872;2023-09-30T07:42:49;13.23;;;4.32;;
32186;SDS011;18686;53.084;8.872;2023-09-30T07:45:18;14.32;;;4.10;;
32186;SDS011;18686;53.084;8.872;2023-09-30T07:47:47;9.93;;;3.38;;
32186;SDS011;18686;53.084;8.872;2023-09-30T07:50:17;12.02;;;3.85;;
32186;SDS011;18686;53.084;8.872;2023-09-30T07:52:45;8.65;;;3.35;;
32186;SDS011;18686;53.084;8.872;2023-09-30T07:55:13;18.15;;;3.83;;
32186;SDS011;18686;53.084;8.872;2023-09-30T07:57:43;17.52;;;4.10;;
32186;SDS011;18686;53.084;8.872;2023-09-30T08:00:13;9.10;;;3.38;;
32186;SDS011;18686;53.084;8.872;2023-09-30T08:02:42;11.65;;;3.47;;
32186;SDS011;18686;53.084;8.872;2023-09-30T08:05:11;12.55;;;3.53;;
32186;SDS011;18686;53.084;8.872;2023-09-30T08:07:41;12.88;;;4.20;;
32186;SDS011;18686;53.084;8.872;2023-09-30T08:10:10;10.20;;;3.40;;
32186;SDS011;18686;53.084;8.872;2023-09-30T08:12:40;11.23;;;3.83;;
32186;SDS011;18686;53.084;8.872;2023-09-30T08:15:11;8.05;;;2.90;;
32186;SDS011;18686;53.084;8.872;2023-09-30T08:17:39;12.15;;;3.50;;
32186;SDS011;18686;53.084;8.872;2023-09-30T08:20:09;9.25;;;3.15;;
32186;SDS011;18686;53.084;8.872;2023-09-30T08:22:38;9.57;;;3.08;;
32186;SDS011;18686;53.084;8.872;2023-09-30T08:25:09;11.73;;;3.25;;
32186;SDS011;18686;53.084;8.872;2023-09-30T08:27:37;7.28;;;3.20;;
32186;SDS011;18686;53.084;8.872;2023-09-30T08:30:07;14.50;;;3.08;;
32186;SDS011;18686;53.084;8.872;2023-09-30T08:32:37;10.55;;;2.92;;
32186;SDS011;18686;53.084;8.872;2023-09-30T08:35:06;6.43;;;2.42;;
32186;SDS011;18686;53.084;8.872;2023-09-30T08:37:36;9.77;;;3.20;;
32186;SDS011;18686;53.084;8.872;2023-09-30T08:40:05;8.93;;;2.53;;
32186;SDS011;18686;53.084;8.872;2023-09-30T08:42:37;12.90;;;3.05;;
32186;SDS011;18686;53.084;8.872;2023-09-30T08:45:08;7.80;;;2.55;;
32186;SDS011;18686;53.084;8.872;2023-09-30T08:47:41;8.10;;;2.65;;
32186;SDS011;18686;53.084;8.872;2023-09-30T08:50:09;9.57;;;3.15;;
32186;SDS011;18686;53.084;8.872;2023-09-30T08:52:37;11.35;;;3.00;;
32186;SDS011;18686;53.084;8.872;2023-09-30T08:55:07;9.35;;;2.75;;
32186;SDS011;18686;53.084;8.872;2023-09-30T08:57:39;11.18;;;3.20;;
32186;SDS011;18686;53.084;8.872;2023-09-30T09:00:09;12.48;;;3.53;;
32186;SDS011;18686;53.084;8.872;2023-09-30T09:02:40;10.85;;;2.78;;
32186;SDS011;18686;53.084;8.872;2023-09-30T09:05:09;7.32;;;2.28;;
32186;SDS011;18686;53.084;8.872;2023-09-30T09:07:38;7.32;;;2.35;;
32186;SDS011;18686;53.084;8.872;2023-09-30T09:10:10;8.05;;;2.78;;
32186;SDS011;18686;53.084;8.872;2023-09-30T09:12:41;10.30;;;3.20;;
32186;SDS011;18686;53.084;8.872;2023-09-30T09:15:20;7.50;;;2.55;;
32186;SDS011;18686;53.084;8.872;2023-09-30T09:17:52;10.88;;;3.20;;
32186;SDS011;18686;53.084;8.872;2023-09-30T09:20:21;8.77;;;3.60;;
32186;SDS011;18686;53.084;8.872;2023-09-30T09:22:51;14.65;;;5.45;;
32186;SDS011;18686;53.084;8.872;2023-09-30T09:25:22;9.40;;;3.15;;
32186;SDS011;18686;53.084;8.872;2023-09-30T09:27:53;10.15;;;3.35;;
32186;SDS011;18686;53.084;8.872;2023-09-30T09:30:22;7.03;;;3.35;;
32186;SDS011;18686;53.084;8.872;2023-09-30T09:32:52;9.55;;;2.70;;
32186;SDS011;18686;53.084;8.872;2023-09-30T09:35:21;6.97;;;2.33;;
32186;SDS011;18686;53.084;8.872;2023-09-30T09:37:55;7.25;;;3.08;;
32186;SDS011;18686;53.084;8.872;2023-09-30T09:40:25;7.88;;;3.17;;
32186;SDS011;18686;53.084;8.872;2023-09-30T09:42:55;9.50;;;2.50;;
32186;SDS011;18686;53.084;8.872;2023-09-30T09:45:25;5.88;;;2.20;;
32186;SDS011;18686;53.084;8.872;2023-09-30T09:47:54;8.27;;;2.30;;
32186;SDS011;18686;53.084;8.872;2023-09-30T09:50:23;6.47;;;2.30;;
32186;SDS011;18686;53.084;8.872;2023-09-30T09:52:51;12.43;;;2.30;;
32186;SDS011;18686;53.084;8.872;2023-09-30T09:55:23;9.15;;;2.47;;
32186;SDS011;18686;53.084;8.872;2023-09-30T09:57:52;8.55;;;2.58;;
32186;SDS011;18686;53.084;8.872;2023-09-30T10:00:23;8.18;;;2.53;;
32186;SDS011;18686;53.084;8.872;2023-09-30T10:02:52;10.95;;;2.80;;
32186;SDS011;18686;53.084;8.872;2023-09-30T10:05:21;8.00;;;2.30;;
32186;SDS011;18686;53.084;8.872;2023-09-30T10:07:50;7.43;;;2.13;;
32186;SDS011;18686;53.084;8.872;2023-09-30T10:10:21;9.45;;;2.47;;
32186;SDS011;18686;53.084;8.872;2023-09-30T10:12:51;7.95;;;2.30;;
32186;SDS011;18686;53.084;8.872;2023-09-30T10:15:39;5.90;;;2.03;;
32186;SDS011;18686;53.084;8.872;2023-09-30T10:18:08;7.72;;;2.40;;
32186;SDS011;18686;53.084;8.872;2023-09-30T10:20:41;10.18;;;2.40;;
32186;SDS011;18686;53.084;8.872;2023-09-30T10:23:22;6.53;;;2.00;;
32186;SDS011;18686;53.084;8.872;2023-09-30T10:26:14;5.65;;;2.10;;
32186;SDS011;18686;53.084;8.872;2023-09-30T10:28:45;5.47;;;2.05;;
32186;SDS011;18686;53.084;8.872;2023-09-30T10:31:17;7.38;;;2.13;;
32186;SDS011;18686;53.084;8.872;2023-09-30T10:36:46;5.15;;;1.58;;
32186;SDS011;18686;53.084;8.872;2023-09-30T10:39:52;8.10;;;2.08;;
32186;SDS011;18686;53.084;8.872;2023-09-30T10:53:50;5.45;;;1.90;;
32186;SDS011;18686;53.084;8.872;2023-09-30T10:56:21;6.65;;;2.35;;
32186;SDS011;18686;53.084;8.872;2023-09-30T10:58:50;6.15;;;2.00;;
32186;SDS011;18686;53.084;8.872;2023-09-30T11:01:19;4.90;;;1.88;;
32186;SDS011;18686;53.084;8.872;2023-09-30T11:03:53;8.48;;;2.17;;
32186;SDS011;18686;53.084;8.872;2023-09-30T11:06:30;5.63;;;1.60;;
32186;SDS011;18686;53.084;8.872;2023-09-30T11:08:59;3.22;;;1.70;;
32186;SDS011;18686;53.084;8.872;2023-09-30T11:11:35;5.32;;;1.83;;
32186;SDS011;18686;53.084;8.872;2023-09-30T11:14:16;3.22;;;1.33;;
32186;SDS011;18686;53.084;8.872;2023-09-30T11:16:45;7.03;;;1.70;;
32186;SDS011;18686;53.084;8.872;2023-09-30T11:19:16;4.18;;;1.40;;
32186;SDS011;18686;53.084;8.872;2023-09-30T11:21:47;5.43;;;1.48;;
32186;SDS011;18686;53.084;8.872;2023-09-30T11:24:17;5.78;;;1.70;;
32186;SDS011;18686;53.084;8.872;2023-09-30T11:26:45;6.45;;;1.60;;
32186;SDS011;18686;53.084;8.872;2023-09-30T11:29:15;3.38;;;1.40;;
32186;SDS011;18686;53.084;8.872;2023-09-30T11:31:44;6.10;;;1.40;;
32186;SDS011;18686;53.084;8.872;2023-09-30T11:34:16;5.03;;;1.83;;
32186;SDS011;18686;53.084;8.872;2023-09-30T11:36:47;7.20;;;1.88;;
32186;SDS011;18686;53.084;8.872;2023-09-30T11:39:26;3.35;;;1.10;;
32186;SDS011;18686;53.084;8.872;2023-09-30T11:41:56;4.50;;;1.40;;
32186;SDS011;18686;53.084;8.872;2023-09-30T11:44:24;3.95;;;1.20;;
32186;SDS011;18686;53.084;8.872;2023-09-30T11:46:55;3.22;;;1.20;;
32186;SDS011;18686;53.084;8.872;2023-09-30T11:49:28;2.10;;;1.20;;
32186;SDS011;18686;53.084;8.872;2023-09-30T11:51:58;3.75;;;1.60;;
32186;SDS011;18686;53.084;8.872;2023-09-30T11:54:28;5.45;;;1.20;;
32186;SDS011;18686;53.084;8.872;2023-09-30T11:56:58;4.68;;;1.77;;
32186;SDS011;18686;53.084;8.872;2023-09-30T11:59:27;5.28;;;1.63;;
32186;SDS011;18686;53.084;8.872;2023-09-30T12:01:55;8.40;;;1.70;;
32186;SDS011;18686;53.084;8.872;2023-09-30T12:04:41;3.03;;;1.10;;
32186;SDS011;18686;53.084;8.872;2023-09-30T12:07:11;4.38;;;2.10;;
32186;SDS011;18686;53.084;8.872;2023-09-30T12:09:40;4.55;;;2.15;;
32186;SDS011;18686;53.084;8.872;2023-09-30T12:12:09;3.78;;;2.10;;
32186;SDS011;18686;53.084;8.872;2023-09-30T12:14:40;4.00;;;2.47;;
32186;SDS011;18686;53.084;8.872;2023-09-30T12:17:08;4.70;;;2.90;;
32186;SDS011;18686;53.084;8.872;2023-09-30T12:19:39;6.55;;;1.90;;
32186;SDS011;18686;53.084;8.872;2023-09-30T12:22:10;4.80;;;1.90;;
32186;SDS011;18686;53.084;8.872;2023-09-30T12:24:39;6.13;;;1.70;;
32186;SDS011;18686;53.084;8.872;2023-09-30T12:27:07;5.05;;;1.67;;
32186;SDS011;18686;53.084;8.872;2023-09-30T12:29:36;5.38;;;2.05;;
32186;SDS011;18686;53.084;8.872;2023-09-30T12:32:05;5.45;;;1.50;;
32186;SDS011;18686;53.084;8.872;2023-09-30T12:34:34;5.25;;;1.60;;
32186;SDS011;18686;53.084;8.872;2023-09-30T12:37:03;3.88;;;1.35;;
32186;SDS011;18686;53.084;8.872;2023-09-30T12:39:32;3.35;;;1.20;;
32186;SDS011;18686;53.084;8.872;2023-09-30T12:42:01;4.50;;;1.38;;
32186;SDS011;18686;53.084;8.872;2023-09-30T12:44:35;2.53;;;1.20;;
32186;SDS011;18686;53.084;8.872;2023-09-30T12:47:03;3.55;;;1.60;;
32186;SDS011;18686;53.084;8.872;2023-09-30T12:49:33;3.42;;;1.30;;
32186;SDS011;18686;53.084;8.872;2023-09-30T12:52:01;3.45;;;1.15;;
32186;SDS011;18686;53.084;8.872;2023-09-30T12:54:30;3.42;;;1.15;;
32186;SDS011;18686;53.084;8.872;2023-09-30T12:57:02;3.17;;;1.30;;
32186;SDS011;18686;53.084;8.872;2023-09-30T12:59:30;4.38;;;1.17;;
32186;SDS011;18686;53.084;8.872;2023-09-30T13:02:00;3.40;;;1.10;;
32186;SDS011;18686;53.084;8.872;2023-09-30T13:04:29;4.43;;;1.35;;
32186;SDS011;18686;53.084;8.872;2023-09-30T13:06:57;3.42;;;1.20;;
32186;SDS011;18686;53.084;8.872;2023-09-30T13:09:25;4.53;;;1.65;;
32186;SDS011;18686;53.084;8.872;2023-09-30T13:11:53;5.85;;;1.80;;
32186;SDS011;18686;53.084;8.872;2023-09-30T13:14:24;2.50;;;1.20;;
32186;SDS011;18686;53.084;8.872;2023-09-30T13:16:54;4.22;;;1.42;;
32186;SDS011;18686;53.084;8.872;2023-09-30T13:19:22;6.18;;;1.52;;
32186;SDS011;18686;53.084;8.872;2023-09-30T13:21:50;5.50;;;1.52;;
32186;SDS011;18686;53.084;8.872;2023-09-30T13:24:19;4.30;;;1.30;;
32186;SDS011;18686;53.084;8.872;2023-09-30T13:26:48;3.25;;;1.48;;
32186;SDS011;18686;53.084;8.872;2023-09-30T13:29:18;2.90;;;1.30;;
32186;SDS011;18686;53.084;8.872;2023-09-30T13:31:48;4.88;;;1.92;;
32186;SDS011;18686;53.084;8.872;2023-09-30T13:34:16;6.47;;;2.00;;
32186;SDS011;18686;53.084;8.872;2023-09-30T13:36:45;6.38;;;1.77;;
32186;SDS011;18686;53.084;8.872;2023-09-30T13:39:13;5.50;;;2.03;;
32186;SDS011;18686;53.084;8.872;2023-09-30T13:41:44;4.28;;;2.20;;
32186;SDS011;18686;53.084;8.872;2023-09-30T13:44:13;5.63;;;2.00;;
32186;SDS011;18686;53.084;8.872;2023-09-30T13:46:42;5.18;;;1.83;;
32186;SDS011;18686;53.084;8.872;2023-09-30T13:49:11;5.88;;;2.03;;
32186;SDS011;18686;53.084;8.872;2023-09-30T13:51:40;7.38;;;3.70;;
32186;SDS011;18686;53.084;8.872;2023-09-30T13:54:08;5.32;;;1.60;;
32186;SDS011;18686;53.084;8.872;2023-09-30T13:56:37;6.22;;;1.77;;
32186;SDS011;18686;53.084;8.872;2023-09-30T13:59:05;3.53;;;1.30;;
32186;SDS011;18686;53.084;8.872;2023-09-30T14:01:36;6.57;;;1.58;;
32186;SDS011;18686;53.084;8.872;2023-09-30T14:04:08;5.40;;;1.60;;
32186;SDS011;18686;53.084;8.872;2023-09-30T14:06:38;3.25;;;1.38;;
32186;SDS011;18686;53.084;8.872;2023-09-30T14:09:07;7.65;;;1.70;;
32186;SDS011;18686;53.084;8.872;2023-09-30T14:11:58;6.60;;;1.67;;
32186;SDS011;18686;53.084;8.872;2023-09-30T14:14:27;6.47;;;1.70;;
32186;SDS011;18686;53.084;8.872;2023-09-30T14:16:55;5.65;;;1.55;;
32186;SDS011;18686;53.084;8.872;2023-09-30T14:19:23;7.13;;;1.73;;
32186;SDS011;18686;53.084;8.872;2023-09-30T14:21:53;5.80;;;2.22;;
32186;SDS011;18686;53.084;8.872;2023-09-30T14:24:23;4.97;;;1.83;;
32186;SDS011;18686;53.084;8.872;2023-09-30T14:26:51;3.15;;;1.30;;
32186;SDS011;18686;53.084;8.872;2023-09-30T14:29:19;5.72;;;1.40;;
32186;SDS011;18686;53.084;8.872;2023-09-30T14:31:47;9.07;;;1.88;;
32186;SDS011;18686;53.084;8.872;2023-09-30T14:34:15;7.32;;;1.80;;
32186;SDS011;18686;53.084;8.872;2023-09-30T14:36:44;26.05;;;13.07;;
32186;SDS011;18686;53.084;8.872;2023-09-30T14:39:15;12.25;;;6.40;;
32186;SDS011;18686;53.084;8.872;2023-09-30T14:41:44;7.65;;;3.88;;
32186;SDS011;18686;53.084;8.872;2023-09-30T14:44:13;5.47;;;1.77;;
32186;SDS011;18686;53.084;8.872;2023-09-30T14:46:41;6.80;;;2.20;;
32186;SDS011;18686;53.084;8.872;2023-09-30T14:49:11;6.60;;;1.70;;
32186;SDS011;18686;53.084;8.872;2023-09-30T14:51:39;4.22;;;1.50;;
32186;SDS011;18686;53.084;8.872;2023-09-30T14:54:07;4.57;;;1.48;;
32186;SDS011;18686;53.084;8.872;2023-09-30T14:56:37;3.30;;;1.50;;
32186;SDS011;18686;53.084;8.872;2023-09-30T14:59:05;4.07;;;1.50;;
32186;SDS011;18686;53.084;8.872;2023-09-30T15:01:34;4.25;;;1.42;;
32186;SDS011;18686;53.084;8.872;2023-09-30T15:04:02;5.85;;;2.05;;
32186;SDS011;18686;53.084;8.872;2023-09-30T15:06:33;5.65;;;1.83;;
32186;SDS011;18686;53.084;8.872;2023-09-30T15:09:01;3.83;;;1.60;;
32186;SDS011;18686;53.084;8.872;2023-09-30T15:11:30;7.18;;;1.83;;